createdAt,value
2019-05-05T00:05:14.925Z,8.1
2019-05-05T00:10:36.141Z,6.2
2019-05-05T00:15:58.802Z,4.7
2019-05-05T00:21:24.235Z,5.9
2019-05-05T00:26:46.013Z,5.4
2019-05-05T00:32:07.572Z,5.5
2019-05-05T00:37:30.261Z,3.1
2019-05-05T00:42:55.434Z,4.5
2019-05-05T00:48:18.322Z,4.2
2019-05-05T00:53:41.034Z,5.1
2019-05-05T00:59:04.657Z,6.3
2019-05-05T01:04:27.380Z,4.7
2019-05-05T01:09:50.048Z,5.2
2019-05-05T01:15:14.972Z,6.6
2019-05-05T01:20:36.413Z,6.1
2019-05-05T01:25:59.061Z,7.5
2019-05-05T01:31:21.685Z,9.1
2019-05-05T01:36:45.928Z,7.1
2019-05-05T01:42:08.627Z,10.9
2019-05-05T01:47:31.268Z,7.5
2019-05-05T01:52:55.524Z,7.2
2019-05-05T01:58:16.596Z,9.5
2019-05-05T02:03:40.233Z,8.9
2019-05-05T02:09:05.256Z,11.3
2019-05-05T02:14:26.889Z,8.8
2019-05-05T02:19:50.816Z,7
2019-05-05T02:25:14.601Z,8
2019-05-05T02:30:37.149Z,8.8
2019-05-05T02:35:59.782Z,9.4
2019-05-05T02:41:25.408Z,9.2
2019-05-05T02:46:46.565Z,8.1
2019-05-05T02:52:09.228Z,10.5
2019-05-05T02:57:31.860Z,9.2
2019-05-05T03:02:54.553Z,10.2
2019-05-05T03:08:18.169Z,8.8
2019-05-05T03:13:40.866Z,10.9
2019-05-05T03:19:04.544Z,6.3
2019-05-05T03:24:27.177Z,11
2019-05-05T03:29:53.310Z,9.3
2019-05-05T03:35:14.071Z,8.1
2019-05-05T03:40:36.696Z,10.8
2019-05-05T03:45:59.381Z,7.5
2019-05-05T03:51:24.145Z,10.5
2019-05-05T03:56:44.649Z,9.1
2019-05-05T04:02:07.358Z,12.8
2019-05-05T04:07:30.067Z,10.9
2019-05-05T04:12:53.988Z,8.3
2019-05-05T04:18:16.485Z,11.2
2019-05-05T04:23:39.148Z,12.4
2019-05-05T04:29:05.219Z,12.1
2019-05-05T04:34:25.274Z,12.2
2019-05-05T04:39:48.512Z,13.6
2019-05-05T04:45:12.035Z,11.8
2019-05-05T04:50:34.713Z,13.1
2019-05-05T04:55:57.376Z,13.5
2019-05-05T05:01:24.048Z,17.5
2019-05-05T05:06:45.339Z,13.6
2019-05-05T05:12:07.958Z,16.1
2019-05-05T05:17:30.572Z,14.4
2019-05-05T05:22:54.462Z,13.9
2019-05-05T05:28:16.924Z,14.2
2019-05-05T05:33:39.636Z,14.5
2019-05-05T05:39:03.498Z,12.4
2019-05-05T05:44:28.055Z,8.7
2019-05-05T05:49:48.781Z,9.2
2019-05-05T05:55:11.492Z,8.9
2019-05-05T06:00:35.198Z,9.1
2019-05-05T06:05:59.405Z,8.8
2019-05-05T06:11:23.849Z,12.1
2019-05-05T06:16:45.515Z,8
2019-05-05T06:22:09.346Z,7.2
2019-05-05T06:27:34.008Z,9.8
2019-05-05T06:32:54.791Z,9.1
2019-05-05T06:38:17.528Z,7.6
2019-05-05T06:43:40.183Z,9.5
2019-05-05T06:49:04.326Z,10.5
2019-05-05T06:54:25.623Z,10.7
2019-05-05T06:59:48.273Z,10.6
2019-05-05T07:05:11.022Z,13.4
2019-05-05T07:10:34.639Z,15.8
2019-05-05T07:15:57.345Z,12.1
2019-05-05T07:21:20.025Z,12
2019-05-05T07:26:44.629Z,9.6
2019-05-05T07:32:06.466Z,12.5
2019-05-05T07:37:30.666Z,13.1
2019-05-05T07:42:55.119Z,12.5
2019-05-05T07:48:19.399Z,16.6
2019-05-05T07:53:44.187Z,13.3
2019-05-05T07:59:05.654Z,12.1
2019-05-05T08:04:28.365Z,11.4
2019-05-05T08:09:51.057Z,12.3
2019-05-05T08:15:14.743Z,12.2
2019-05-05T08:20:36.465Z,12.9
2019-05-05T08:25:59.250Z,14
2019-05-05T08:31:21.914Z,13.7
2019-05-05T08:36:45.968Z,19.700001
2019-05-05T08:42:08.763Z,19.4
2019-05-05T08:47:31.445Z,16.5
2019-05-05T08:52:55.103Z,18.299999
2019-05-05T08:58:17.751Z,15.7
2019-05-05T09:03:40.437Z,16.200001
2019-05-05T09:09:04.039Z,18.9
2019-05-05T09:14:26.758Z,17.5
2019-05-05T09:19:49.440Z,14.9
2019-05-05T09:25:13.642Z,14.2
2019-05-05T09:30:35.680Z,14.8
2019-05-05T09:35:58.289Z,22
2019-05-05T09:41:21.024Z,19.1
2019-05-05T09:46:44.608Z,19.299999
2019-05-05T09:52:06.415Z,15.6
2019-05-05T09:57:29.123Z,16
2019-05-05T10:02:54.276Z,14.5
2019-05-05T10:08:15.010Z,11.8
2019-05-05T10:13:38.504Z,11.8
2019-05-05T10:19:01.152Z,10.5
2019-05-05T10:24:28.331Z,8.6
2019-05-05T10:29:48.491Z,11.9
2019-05-05T10:35:11.153Z,11.3
2019-05-05T10:40:35.405Z,11.6
2019-05-05T10:45:58.085Z,15.9
2019-05-05T10:51:23.679Z,15.6
2019-05-05T10:56:45.012Z,12.6
2019-05-05T11:02:07.682Z,15.8
2019-05-05T11:07:30.362Z,16.6
2019-05-05T11:12:53.996Z,18.6
2019-05-05T11:18:16.700Z,14.5
2019-05-05T11:23:39.379Z,15.3
2019-05-05T11:29:04.198Z,11.5
2019-05-05T11:34:25.627Z,13.8
2019-05-05T11:39:48.352Z,11.8
2019-05-05T11:45:11.876Z,8.4
2019-05-05T11:50:34.603Z,10.2
2019-05-05T11:55:57.236Z,10.7
2019-05-05T12:01:20.425Z,10.6
2019-05-05T12:06:44.323Z,9.3
2019-05-05T12:12:06.730Z,11.8
2019-05-05T12:17:29.364Z,10.7
2019-05-05T12:22:53.744Z,11.4
2019-05-05T12:28:14.643Z,8.8
2019-05-05T12:33:37.372Z,10.2
2019-05-05T12:39:00.925Z,9.4
2019-05-05T12:44:23.748Z,7.7
2019-05-05T12:49:46.236Z,10
2019-05-05T12:55:08.907Z,7.2
2019-05-05T13:00:31.572Z,8.4
2019-05-05T13:05:54.190Z,8.6
2019-05-05T13:11:17.479Z,8.3
2019-05-05T13:16:50.506Z,8.3
2019-05-05T13:22:03.907Z,7.8
2019-05-05T13:27:26.784Z,8.7
2019-05-05T13:32:49.414Z,8.3
2019-05-05T13:38:12.057Z,11.7
2019-05-05T13:43:34.722Z,9
2019-05-05T13:48:57.387Z,8.6
2019-05-05T13:54:20.104Z,14.7
2019-05-05T13:59:44.425Z,7.2
2019-05-05T14:05:06.507Z,8.2
2019-05-05T14:10:29.195Z,9
2019-05-05T14:15:51.841Z,10.7
2019-05-05T14:21:15.520Z,10.2
2019-05-05T14:26:38.191Z,10.3
2019-05-05T14:32:00.843Z,8.9
2019-05-05T14:37:24.800Z,14.9
2019-05-05T14:42:46.286Z,9.8
2019-05-05T14:48:08.940Z,11.6
2019-05-05T14:53:31.589Z,11
2019-05-05T14:58:55.241Z,7.9
2019-05-05T15:04:18.941Z,8.4
2019-05-05T15:09:41.620Z,8.4
2019-05-05T15:15:06.882Z,10.7
2019-05-05T15:20:27.981Z,12.8
2019-05-05T15:25:50.624Z,11.1
2019-05-05T15:31:14.292Z,6.5
2019-05-05T15:36:37.961Z,10
2019-05-05T15:42:01.737Z,9.3
2019-05-05T15:47:24.359Z,9.6
2019-05-05T15:52:46.986Z,9.6
2019-05-05T15:58:09.683Z,9
2019-05-05T16:03:33.330Z,7.8
2019-05-05T16:08:56.616Z,10.8
2019-05-05T16:14:18.599Z,11.1
2019-05-05T16:19:41.308Z,9.1
2019-05-05T16:25:04.960Z,8.7
2019-05-05T16:30:27.604Z,4.2
2019-05-05T16:35:50.286Z,4.7
2019-05-05T16:41:13.568Z,4.4
2019-05-05T16:46:35.641Z,5.4
2019-05-05T16:52:00.675Z,5.4
2019-05-05T16:57:31.718Z,5.3
2019-05-05T17:02:44.594Z,6.3
2019-05-05T17:08:07.293Z,6.7
2019-05-05T17:13:34.413Z,5.8
2019-05-05T17:18:57.108Z,6.7
2019-05-05T17:24:19.730Z,9.2
2019-05-05T17:29:43.962Z,9.4
2019-05-05T17:35:06.047Z,6.4
2019-05-05T17:40:28.696Z,7.5
2019-05-05T17:45:51.359Z,8.8
2019-05-05T17:51:14.983Z,9.2
2019-05-05T17:56:37.626Z,7.3
2019-05-05T18:02:01.206Z,8.8
2019-05-05T18:07:24.971Z,5.8
2019-05-05T18:12:47.655Z,9.2
2019-05-05T18:18:10.432Z,8.4
2019-05-05T18:23:34.268Z,9
2019-05-05T18:28:56.725Z,9.1
2019-05-05T18:34:19.393Z,9.2
2019-05-05T18:39:43.875Z,10.5
2019-05-05T18:45:05.932Z,10.3
2019-05-05T18:50:28.692Z,7.8
2019-05-05T18:55:51.450Z,13.2
2019-05-05T19:01:14.243Z,12.5
2019-05-05T19:06:38.918Z,8.5
2019-05-05T19:12:01.582Z,5.5
2019-05-05T19:17:24.230Z,10.6
2019-05-05T19:22:47.869Z,5.7
2019-05-05T19:28:10.642Z,8.3
2019-05-05T19:33:34.389Z,5.8
2019-05-05T19:38:57.217Z,6.9
2019-05-05T19:44:19.944Z,6.8
2019-05-05T19:49:44.560Z,5.7
2019-05-05T19:55:06.317Z,8.5
2019-05-05T20:00:28.941Z,8.8
2019-05-05T20:05:53.605Z,8.2
2019-05-05T20:11:14.410Z,6.9
2019-05-05T20:16:37.032Z,5.7
2019-05-05T20:21:59.676Z,7.9
2019-05-05T20:27:23.531Z,7.1
2019-05-05T20:32:45.035Z,8.1
2019-05-05T20:38:07.662Z,10.5
2019-05-05T20:43:30.352Z,12.2
2019-05-05T20:48:54.433Z,9.3
2019-05-05T20:54:16.289Z,7.3
2019-05-05T20:59:38.914Z,8.1
2019-05-05T21:05:03.832Z,9.2
2019-05-05T21:10:24.345Z,6.3
2019-05-05T21:15:46.960Z,7
2019-05-05T21:21:09.618Z,9.8
2019-05-05T21:26:34.221Z,7.2
2019-05-05T21:31:55.941Z,8.1
2019-05-05T21:37:18.637Z,9.8
2019-05-05T21:42:41.319Z,9.5
2019-05-05T21:48:05.072Z,10.1
2019-05-05T21:53:28.507Z,9.4
2019-05-05T21:58:51.214Z,12.7
2019-05-05T22:04:15.073Z,8.3
2019-05-05T22:09:36.512Z,11.8
2019-05-05T22:15:00.214Z,10.4
2019-05-05T22:20:23.875Z,13
2019-05-05T22:25:47.395Z,14.2
2019-05-05T22:31:10.061Z,11.8
2019-05-05T22:36:34.515Z,10.7
2019-05-05T22:41:57.170Z,12.6
2019-05-05T22:47:19.836Z,12.6
2019-05-05T22:52:44.660Z,12.5
2019-05-05T22:58:06.142Z,10.9
2019-05-05T23:03:28.810Z,12.6
2019-05-05T23:08:51.566Z,11.6
2019-05-05T23:14:15.219Z,12.2
2019-05-05T23:19:38.956Z,14.4
2019-05-05T23:25:03.591Z,13
2019-05-05T23:30:37.749Z,13.4
2019-05-05T23:35:47.998Z,13.9
2019-05-05T23:41:10.632Z,11.1
2019-05-05T23:46:34.776Z,13.3
2019-05-05T23:51:55.927Z,16.4
2019-05-05T23:57:19.129Z,14.9
